x

Los Angeles Pier F, Ca - 9410670 (pfxc1) Weather Station

9:54 - Fri 24th Mar 2017 All times are PDT. -7 hours from GMT.

  • Wind
    6mph
  • Aire Temp 61°f
  • Sea Pressure 1024.1mb
  • Los Angeles Pier F, Ca - 9410670
  • Los Angeles Pier F, Ca - 9410670

More Historic Weather Station data

Upgrade to MSW Pro to gain access to the past 30 days of data for over 8000 Wavebouys and Weather Stations around the globe.

Join Pro

Comparision Forecast

View Surf forecast
   
vie 03/24 9:54 6
mph
1024.1mb 61f
9:48 5
mph
1024.2mb 62f
9:42 3 5 mph 1024.3mb 62f
9:36 3 6 mph 1024.4mb 62f
9:30 5 6 mph 1024.2mb 61f
9:24 6 7 mph 1024mb 60f
9:18 5 7 mph 1024mb 60f
9:12 5 6 mph 1023.9mb 60f
9:06 6 7 mph 1023.9mb 60f
9:00 5 6 mph 1023.8mb 60f
8:54 3 5 mph 1023.9mb 60f
8:48 3 6 mph 1024mb 59f
8:42 3 5 mph 1024mb 59f
8:36 3 5 mph 1024mb 59f
8:30 5
mph
1024.1mb 58f
8:24 5 6 mph 1023.9mb 58f
8:18 5 6 mph 1023.9mb 58f
8:12 5
mph
1023.9mb 57f
8:06 3 5 mph 1023.9mb 57f
8:00 1 3 mph 1024.1mb 58f
7:54 3 5 mph 1024mb 57f
7:48 3 5 mph 1024mb 57f
7:42 2 5 mph 1024mb 56f
7:36 2 3 mph 1024mb 56f
7:30 2 5 mph 1023.9mb 56f
7:24 2 5 mph 1023.9mb 56f
7:18 3 5 mph 1023.7mb 55f
7:12 2 3 mph 1023.6mb 55f
7:06 2 5 mph 1023.6mb 55f
7:00 3 6 mph 1023.5mb 55f
6:48 5 6 mph 1023.5mb 55f
6:42 5 6 mph 1023.4mb 54f
6:36 5 6 mph 1023.4mb 55f
6:30 3 6 mph 1023.4mb 55f
6:24 5 6 mph 1023.3mb 55f
6:18 5 6 mph 1023.2mb 55f
6:12 5 6 mph 1023.1mb 55f
6:06 5 6 mph 1023.1mb 55f
6:00 5 6 mph 1022.9mb 55f
5:54 5 6 mph 1022.9mb 55f
5:48 5 6 mph 1022.9mb 55f
5:42 5 6 mph 1022.8mb 55f
5:36 6
mph
1022.8mb 56f
5:30 5 7 mph 1022.8mb 56f
5:24 5 6 mph 1022.8mb 56f
5:18 5 6 mph 1022.8mb 56f
5:12 3 6 mph 1022.8mb 55f
5:06 5 6 mph 1022.8mb 55f
5:00 5
mph
1022.9mb 55f
4:54 3
mph
1023mb 55f
4:48 3 5 mph 1023.1mb 55f
4:42 3 5 mph 1023.1mb 55f
4:36 3 5 mph 1023mb 55f
4:30 2 3 mph 1022.9mb 55f
4:24 2
mph
1022.9mb 55f
4:18 1 2 mph 1022.9mb 55f
4:12  -  2 mph 1023.1mb 55f
4:06 3 5 mph 1023.1mb 55f
4:00 2 3 mph 1023.1mb 55f
3:54 2 3 mph 1023.2mb 55f
3:42 3 5 mph 1023mb 55f
3:36 3 5 mph 1022.9mb 55f
3:30 6 7 mph 1022.8mb 55f
3:24 7 8 mph 1022.7mb 56f
3:18 5 7 mph 1022.8mb 56f
3:12 5
mph
1022.9mb 56f
3:06 3 5 mph 1022.9mb 56f
3:00 3 5 mph 1022.9mb 56f
2:54 2 5 mph 1022.9mb 56f
2:48 2 3 mph 1022.9mb 57f
2:42 2 5 mph 1022.8mb 57f
2:36 2 5 mph 1022.9mb 57f
2:30 2 3 mph 1023mb 57f
2:24 2 3 mph 1022.9mb 57f
2:18 3 5 mph 1023.1mb 57f
2:12 2 3 mph 1023.2mb 57f
2:06 5 6 mph 1023.2mb 57f
2:00 3 6 mph 1023.2mb 57f
1:54 5
mph
1023.3mb 57f
1:48 3 5 mph 1023.3mb 57f
1:42 5 6 mph 1023.2mb 57f
1:36 5 6 mph 1023.1mb 57f
1:30 3 6 mph 1023.1mb 57f
1:24 5 6 mph 1023mb 57f
1:18 3 6 mph 1023mb 57f
1:12 6 8 mph 1023.1mb 57f
1:06 5 7 mph 1023.1mb 57f
1:00 6 8 mph 1023.1mb 57f
12:54 5 6 mph 1023mb 57f
12:48 6 7 mph 1023mb 58f
12:42 6 7 mph 1023mb 58f
12:36 6 7 mph 1023mb 58f
12:30 5 7 mph 1023mb 57f
12:24 6 7 mph 1023mb 58f
12:18 6
mph
1023mb 58f
12:06 6 7 mph 1023.1mb 58f
12:00 6 7 mph 1023mb 58f
jue 03/23 11:54 6 7 mph 1022.9mb 57f
11:48 6 7 mph 1022.9mb 57f
11:42 5 6 mph 1022.8mb 58f
11:36 6 7 mph 1022.8mb 58f
11:30 6 7 mph 1022.8mb 58f
11:24 6 7 mph 1022.8mb 58f
11:18 6
mph
1022.7mb 58f
11:12 6
mph
1022.7mb 58f
11:06 5
mph
1022.6mb 58f
11:00 5 6 mph 1022.6mb 58f
10:54 3 5 mph 1022.5mb 58f
10:48 5 6 mph 1022.5mb -
10:42 5 7 mph 1022.5mb -
10:36 3 5 mph 1022.4mb -
10:30 5 6 mph 1022.6mb 58f
10:24 5 6 mph 1022.6mb 58f
10:18 6
mph
1022.6mb 58f
10:12 5 6 mph 1022.5mb 58f
10:06 5 7 mph 1022.4mb 58f
10:00 6 7 mph 1022.5mb 58f
9:54 5 6 mph 1022.3mb 58f
9:48 6 7 mph 1022.4mb 58f
9:42 5 6 mph 1022.3mb 58f
9:36 6 7 mph 1022.3mb 58f
9:30 6 7 mph 1022.3mb 58f
9:24 6 7 mph 1022.3mb 58f
9:18 7 8 mph 1022.3mb 58f
9:12 3 6 mph 1022.1mb 58f
9:06 6 7 mph 1022mb 58f
9:00 6 7 mph 1022mb 58f
8:54 7 9 mph 1021.8mb 58f
8:48 7 9 mph 1021.7mb 58f
8:42 5 7 mph 1021.7mb 58f
8:36 7 9 mph 1021.7mb 58f
8:30 7 10 mph 1021.6mb 58f
8:24 6 8 mph 1021.5mb 58f
8:18 7 9 mph 1021.5mb 58f
8:12 7 10 mph 1021.3mb 58f
8:06 6 7 mph 1021.2mb 59f
8:00 7 8 mph 1021mb 59f
7:54 7 9 mph 1020.9mb 59f
7:48 8 11 mph 1020.9mb 59f
7:42 7 9 mph 1020.8mb 59f
7:36 7 9 mph 1020.6mb 59f
7:30 6 8 mph 1020.6mb 59f
7:24 8 9 mph 1020.6mb 59f
7:18 8 11 mph 1020.5mb 59f
7:12 9 11 mph 1020.4mb 59f
7:06 9 11 mph 1020.3mb 59f
7:00 10 14 mph 1020.4mb 59f
6:54 11 14 mph 1020.3mb 60f
6:48 10 14 mph 1020.2mb 60f
6:42 11 14 mph 1020.1mb 60f
6:36 13 16 mph 1020.1mb 60f
6:30 11 20 mph 1020mb 61f
6:24 10 14 mph 1019.8mb 61f
6:18 13 16 mph 1019.7mb 62f
6:12 13 15 mph 1019.5mb 62f
6:06 10 14 mph 1019.5mb 63f
6:00 11 14 mph 1019.4mb 63f
5:54 11 14 mph 1019.3mb 63f
5:48 15 16 mph 1019.1mb 62f
5:42 13 14 mph 1019mb 63f
5:36 13 16 mph 1019mb 63f
5:30 10 11 mph 1019mb 64f
5:24 9 11 mph 1019mb 64f
5:18 10 13 mph 1019.1mb 64f
5:12 10 14 mph 1019mb 64f
5:06 9 13 mph 1019.1mb 64f
5:00 13 15 mph 1019.2mb 64f
4:54 10 14 mph 1019.3mb 64f
4:48 13 17 mph 1019.1mb 63f
4:42 14 18 mph 1019.1mb 63f
4:36 16 20 mph 1019.1mb 63f
4:30 14 18 mph 1019.1mb 63f
4:24 14 18 mph 1019.1mb 63f
4:18 15 21 mph 1019mb 63f
4:12 15 20 mph 1019.1mb 63f
4:06 14 21 mph 1019mb 63f
4:00 14 20 mph 1019mb 63f
3:54 14 20 mph 1019.1mb 64f
3:48 15 20 mph 1018.9mb 63f
3:42 16 23 mph 1018.9mb 63f
3:36 15 22 mph 1019mb 64f
3:30 15 20 mph 1019mb 64f
3:24 14 18 mph 1019mb 64f
3:18 15 20 mph 1018.9mb 64f
3:12 17 22 mph 1018.9mb 64f
3:06 16 21 mph 1018.9mb 64f
3:00 17 23 mph 1018.9mb 63f
2:54 18 22 mph 1018.9mb 64f
2:48 16 20 mph 1018.8mb 65f
2:42 15 20 mph 1018.8mb 65f
2:36 15 17 mph 1018.9mb 65f
2:30 15 18 mph 1018.9mb 65f
2:24 14 16 mph 1019mb 65f
2:18 13 16 mph 1019.1mb 65f
2:12 14 20 mph 1019.2mb 65f
2:06 14 17 mph 1019.3mb 66f
2:00 14 18 mph 1019.3mb 65f
1:54 16 18 mph 1019.3mb 65f
1:42 14 18 mph 1019.4mb 66f
1:36 13 17 mph 1019.5mb 65f
1:30 16 20 mph 1019.3mb 65f
1:24 15 21 mph 1019.4mb 65f
1:18 14 20 mph 1019.4mb 65f
1:12 13 20 mph 1019.5mb 64f
1:06 17 21 mph 1019.4mb 64f
1:00 17 23 mph 1019.5mb 64f
12:54 15 21 mph 1019.5mb 65f
12:48 14 16 mph 1019.5mb 64f
12:42 13 15 mph 1019.4mb 64f
12:36 11 15 mph 1019.5mb 64f
12:30 13 17 mph 1019.5mb 64f
12:24 11 15 mph 1019.5mb 64f
12:18 7 10 mph 1019.7mb 64f
12:12 11 15 mph 1019.6mb 63f
12:06 11 14 mph 1019.6mb 65f
12:00 8 11 mph 1019.6mb 64f
11:54 9 14 mph 1019.6mb 65f
11:48 10 13 mph 1019.6mb 65f
11:42 8 15 mph 1019.6mb 64f
11:36 7 11 mph 1019.9mb 64f
11:30 10 15 mph 1019.6mb 63f
11:24 6 11 mph 1019.9mb 63f
11:18 11 15 mph 1019.5mb 63f
11:12 8 13 mph 1019.7mb 64f
11:06 11 16 mph 1019.6mb 63f
11:00 13 17 mph 1019.5mb 64f
10:54 11 18 mph 1019.4mb 63f
10:48 11 16 mph 1019.5mb 64f
10:42 11 16 mph 1019.5mb 63f
10:36 13 16 mph 1019.2mb 63f
10:30 14 17 mph 1019.1mb 63f
10:24 13 16 mph 1018.9mb 62f
10:18 15 18 mph 1018.7mb 62f
10:12 14 18 mph 1018.7mb 63f
10:06 14 18 mph 1018.7mb 63f
10:00 14 18 mph 1018.6mb 62f
9:54 14 20 mph 1018.5mb 62f
9:48 16 20 mph 1018.2mb 62f
9:42 18 24 mph 1018.1mb 62f
9:36 21 25 mph 1018mb 62f
9:30 20 26 mph 1017.9mb 62f
9:24 18 24 mph 1017.7mb 62f
9:18 18 23 mph 1017.7mb 61f
9:12 20 25 mph 1017.6mb 61f
9:06 20 24 mph 1017.5mb 61f
9:00 22 25 mph 1017.4mb 61f
8:54 21 26 mph 1017.5mb 60f
8:48 23 28 mph 1017.4mb 60f
8:42 22 25 mph 1017.4mb 60f
8:36 18 25 mph 1017.4mb 60f
8:30 16 20 mph 1017.5mb 60f
8:24 16 21 mph 1017.4mb 60f
8:18 17 22 mph 1017.2mb 59f
8:12 18 22 mph 1017.1mb 59f
8:06 17 23 mph 1017.1mb 59f
8:00 16 21 mph 1017.2mb 59f
7:54 17 21 mph 1017.2mb 59f
7:48 16 20 mph 1017.1mb 59f
7:42 17 22 mph 1016.9mb 58f
7:36 17 21 mph 1016.9mb 58f
7:30 17 22 mph 1016.7mb 58f
7:24 16 22 mph 1016.7mb 58f
7:18 17 20 mph 1016.6mb 58f
7:12 16 20 mph 1016.5mb 58f
7:06 16 18 mph 1016.5mb 57f
7:00 16 20 mph 1016.4mb 57f
6:54 15 20 mph 1016.4mb 57f
6:48 17 23 mph 1016.3mb 57f
6:42 16 22 mph 1016.3mb 57f
6:36 16 21 mph 1016.3mb 57f
6:24 15 18 mph 1016.2mb 57f
6:18 14 17 mph 1016.3mb 57f
6:12 14 18 mph 1016.3mb 57f
6:06 13 17 mph 1016.3mb 56f
6:00 15 17 mph 1016.3mb 56f
5:54 16 20 mph 1016.3mb 57f
5:48 15 18 mph 1016.2mb 57f
5:42 16 21 mph 1016.1mb 57f
5:36 15 20 mph 1016.1mb 57f
5:30 20 23 mph 1016mb 57f
5:24 17 23 mph 1015.9mb 57f
5:18 16 20 mph 1015.8mb 57f
5:12 14 17 mph 1015.8mb 57f
5:06 14 16 mph 1015.7mb 57f
5:00 14 17 mph 1015.5mb 57f
4:54 13 16 mph 1015.5mb 58f
4:48 15 17 mph 1015.6mb 58f
4:42 14 16 mph 1015.5mb 57f
4:36 13 16 mph 1015.5mb 57f
4:30 11 16 mph 1015.4mb 57f
4:24 14 16 mph 1015.4mb 57f
4:18 13 16 mph 1015.4mb 57f
4:12 13 15 mph 1015.3mb 57f
4:06 11 14 mph 1015.3mb 57f
4:00 11 15 mph 1015.3mb 57f
3:54 13 16 mph 1015.3mb 57f
3:48 14 18 mph 1015.2mb 57f
3:42 14 18 mph 1015.1mb 57f
3:36 15 20 mph 1015.2mb 57f
3:30 16 21 mph 1015.3mb 57f
3:24 17 22 mph 1015.3mb 57f
3:18 16 22 mph 1015.3mb 57f
3:12 15 20 mph 1015.3mb 57f
3:06 15 18 mph 1015.3mb 57f
3:00 17 22 mph 1015.2mb 57f
2:54 18 22 mph 1015.2mb 57f
2:48 18 21 mph 1015.2mb 57f
2:42 18 23 mph 1015.2mb 57f
2:36 18 22 mph 1015.2mb 57f
2:30 20 22 mph 1015.3mb 57f
2:24 17 23 mph 1015.4mb 57f
2:18 13 18 mph 1015.5mb 57f
2:12 13 16 mph 1015.5mb 57f
2:06 14 16 mph 1015.4mb 57f
2:00 14 16 mph 1015.3mb 57f
1:54 15 17 mph 1015.2mb 57f
1:48 15 17 mph 1015.1mb 57f
1:42 14 17 mph 1015mb 57f
1:36 16 22 mph 1015.1mb 57f
1:30 16 20 mph 1015.2mb 57f
1:24 17 22 mph 1015.1mb 58f
1:18 16 18 mph 1015.1mb 58f
1:12 14 18 mph 1015.1mb 58f
1:06 10 14 mph 1015mb 58f
1:00 11 15 mph 1015mb 58f
12:54 15 18 mph 1015mb 58f
12:48 14 17 mph 1015mb 58f
12:42 11 16 mph 1015mb 58f
12:36 13 16 mph 1015mb 58f
12:30 11 16 mph 1015mb 58f
12:24 13 20 mph 1014.9mb 58f
12:18 13 20 mph 1014.8mb 58f
12:12 13 15 mph 1014.9mb 58f
12:06 14 17 mph 1014.9mb 58f
12:00 14 20 mph 1014.9mb 58f
mié 03/22 11:54 10 14 mph 1015mb 58f
11:48 7 10 mph 1015.1mb -
11:42 6 11 mph 1015.2mb -
11:36 10 13 mph 1015.2mb -
11:30 9 14 mph 1015.2mb 58f
11:24 14 17 mph 1015.2mb 58f
11:18 14 16 mph 1015.2mb 58f
11:12 14 18 mph 1015.3mb 58f
11:06 13 16 mph 1015.3mb 58f
10:54 14 20 mph 1015.1mb 58f
10:48 15 20 mph 1015.2mb -
10:42 15 20 mph 1015.3mb -
10:36 11 15 mph 1015.3mb -
10:30 9 14 mph 1015.4mb 58f
10:24 8 11 mph 1015.3mb 58f
10:18 10 15 mph 1015.3mb 58f
10:12 8 15 mph 1015.3mb 59f
10:06 9 18 mph 1015.3mb 59f
10:00 10 18 mph 1015.3mb 59f
9:54 9 14 mph 1015.3mb 59f
9:48 11 16 mph 1015.3mb 59f
9:42 10 16 mph 1015.3mb 59f
9:36 10 14 mph 1015.3mb 59f
9:30 14 17 mph 1015.3mb 59f
9:24 14 20 mph 1015.3mb 59f
9:18 14 18 mph 1015.3mb 60f
9:12 8 14 mph 1015.3mb 59f
9:06 9 14 mph 1015.3mb 59f
9:00 8 13 mph 1015.3mb 60f
8:54 6 10 mph 1015.1mb 60f
8:48 8 10 mph 1015mb 60f
8:42 9 13 mph 1014.9mb 60f
8:36 10 16 mph 1014.9mb 60f
8:30 8 11 mph 1014.9mb 60f
8:24 9 13 mph 1014.7mb 60f
8:18 10 15 mph 1014.7mb 60f
8:12 10 15 mph 1014.7mb 60f
8:06 10 16 mph 1014.7mb 60f
8:00 9 14 mph 1014.7mb 60f
7:54 9 13 mph 1014.7mb 60f
7:48 11 15 mph 1014.5mb 60f
7:42 13 15 mph 1014.6mb 60f
7:36 15 20 mph 1014.5mb 60f
7:30 15 21 mph 1014.5mb 60f
7:24 10 13 mph 1014.5mb 60f
7:18 10 16 mph 1014.4mb 60f
7:12 13 17 mph 1014.4mb 60f
7:06 14 20 mph 1014.3mb 60f
7:00 17 22 mph 1014.2mb 60f
6:54 16 22 mph 1014.1mb 60f
6:48 15 17 mph 1014.2mb 61f
6:42 15 18 mph 1014.2mb 60f
6:36 15 20 mph 1014.2mb 60f
6:30 16 22 mph 1014.3mb 61f
6:24 13 17 mph 1014.4mb 61f
6:18 14 21 mph 1014.3mb 61f
6:12 16 22 mph 1014.1mb 61f
6:06 13 17 mph 1014.2mb 62f
6:00 13 18 mph 1014.3mb 62f
5:54 14 17 mph 1014.3mb 62f
5:48 14 21 mph 1014.2mb 62f
5:42 14 18 mph 1014.4mb 62f
5:36 13 17 mph 1014.4mb 61f
5:30 14 20 mph 1014.2mb 61f
5:24 14 18 mph 1014.2mb 62f
5:18 15 22 mph 1014.1mb 61f
5:12 17 23 mph 1013.9mb 62f
5:06 17 22 mph 1014mb 62f
5:00 16 21 mph 1014.1mb 62f
4:54 18 25 mph 1014.1mb 62f
4:48 18 25 mph 1014.1mb 62f
4:42 18 24 mph 1014.1mb 62f
4:36 21 26 mph 1014mb 62f
4:30 18 23 mph 1014.1mb 62f
4:24 18 25 mph 1014mb 62f
4:18 21 25 mph 1014.1mb 62f
4:12 21 25 mph 1014.1mb 62f
4:06 20 23 mph 1014.1mb 63f
4:00 18 25 mph 1014mb 64f
3:54 18 23 mph 1014mb 64f
3:48 15 22 mph 1014.2mb 64f
3:42 17 21 mph 1014.1mb 64f
3:36 14 21 mph 1014.1mb 64f
3:30 13 21 mph 1014.2mb 65f
3:24 14 17 mph 1014.2mb 65f
3:18 9 16 mph 1014.3mb 65f
3:12 10 14 mph 1014.4mb 65f
3:06 9 11 mph 1014.4mb 64f
3:00 13 17 mph 1014.4mb 65f
2:54 15 18 mph 1014.6mb 65f
2:48 15 18 mph 1014.5mb 64f
2:42 16 20 mph 1014.6mb 65f
2:36 15 17 mph 1014.8mb 64f
2:30 15 18 mph 1014.8mb 64f
2:24 17 21 mph 1014.9mb 65f
2:18 16 20 mph 1015.2mb 65f
2:12 16 18 mph 1015.1mb 64f
2:06 14 18 mph 1015.2mb 65f
2:00 14 17 mph 1015.3mb 65f
1:54 14 16 mph 1015.3mb 65f
1:48 15 18 mph 1015.5mb 66f
1:42 14 16 mph 1015.8mb 66f
1:36 16 21 mph 1015.8mb 64f
1:30 15 18 mph 1015.7mb 64f
1:24 16 20 mph 1015.6mb 64f
1:18 14 20 mph 1015.9mb 64f
1:12 13 17 mph 1015.9mb 64f
1:06 15 18 mph 1016mb 64f
1:00 13 17 mph 1016.1mb 64f
12:54 14 16 mph 1016.4mb 64f
12:48 16 18 mph 1016.4mb 64f
12:42 16 20 mph 1016.3mb 65f
12:36 14 17 mph 1016.6mb 65f
12:30 13 16 mph 1016.7mb 64f
12:24 14 18 mph 1016.5mb 64f
12:18 14 16 mph 1016.5mb 65f
12:12 14 17 mph 1016.4mb 66f
12:06 13 15 mph 1016.5mb 66f
12:00 13 16 mph 1016.7mb 66f
11:54 10 14 mph 1016.8mb 65f
11:48 13 15 mph 1017.1mb 65f
11:42 11 15 mph 1016.9mb 64f
11:36 14 17 mph 1016.6mb 63f
11:30 13 15 mph 1016.5mb 64f
11:24 8 13 mph 1016.8mb 64f
11:18 9 14 mph 1016.6mb 64f
11:12 10 13 mph 1016.5mb 65f
11:06 11 15 mph 1016.7mb 66f
11:00 9 15 mph 1017.1mb 65f
10:54 9 13 mph 1016.9mb 64f
10:48 8 13 mph 1017mb 63f
10:42 10 13 mph 1016.8mb 63f
10:36 9 13 mph 1016.8mb 63f
10:30 11 14 mph 1016.7mb 64f
10:24 11 14 mph 1016.9mb 64f
10:18 11 14 mph 1016.9mb 64f
10:12 13 15 mph 1016.9mb 63f
10:06 13 14 mph 1016.5mb 62f
10:00 13 15 mph 1016.4mb 62f
9:54 11 14 mph 1016.3mb 63f
9:48 10 14 mph 1016.4mb 63f
9:42 8 9 mph 1016.4mb 63f
9:36 7 8 mph 1016.4mb 63f
9:30 7 8 mph 1016.5mb 64f
9:24 6 7 mph 1016.3mb 64f
9:18 7 8 mph 1016.3mb 64f
9:12 5 6 mph 1016.4mb 64f
9:06 6 8 mph 1016.6mb 63f
9:00 6 7 mph 1016.6mb 62f
8:54 6 7 mph 1016.5mb 61f
8:48 6 7 mph 1016.5mb 61f
8:42 6
mph
1016.5mb 61f
8:36 6
mph
1016.6mb 61f
8:30 5 6 mph 1016.7mb 61f
8:24 3 5 mph 1016.6mb 60f
8:18 5
mph
1016.5mb 60f
8:12 5
mph
1016.4mb 60f
8:06 6
mph
1016.4mb 60f
8:00 2 5 mph 1016.3mb 60f
7:54 5 6 mph 1016.4mb 60f
7:48 3 5 mph 1016.2mb 60f
7:42 1 2 mph 1016.1mb 60f
7:36 1 2 mph 1016.3mb 60f
7:30 1 2 mph 1016.1mb 60f
7:24 2 5 mph 1015.9mb 60f
7:18 5 6 mph 1015.8mb 59f
7:12 3 5 mph 1015.8mb 59f
7:06 3 5 mph 1015.8mb 59f
7:00 2 5 mph 1015.9mb 60f
6:54 5 6 mph 1015.8mb 59f
6:48 5 6 mph 1015.8mb 59f
6:42 5 6 mph 1015.8mb 59f
6:36 5
mph
1015.8mb 59f
6:30 5 6 mph 1015.8mb 59f
6:24 5 6 mph 1015.8mb 59f
6:18 6
mph
1015.8mb 59f
6:12 6 7 mph 1015.8mb 59f
6:06 6
mph
1015.8mb 59f
6:00 6
mph
1015.8mb 59f
5:54 5 6 mph 1015.8mb 59f
5:48 5 6 mph 1015.8mb 59f
5:42 6 7 mph 1015.8mb 59f
5:36 7 8 mph 1015.8mb 59f
5:30 7 8 mph 1015.7mb 59f
5:24 8 9 mph 1015.7mb 59f
5:18 9 10 mph 1015.6mb 59f
5:12 9 10 mph 1015.7mb 59f
5:06 9
mph
1015.7mb 59f
5:00 8 10 mph 1015.7mb 59f
4:54 8 10 mph 1015.7mb 59f
4:48 9 10 mph 1015.8mb 59f
4:42 9 10 mph 1015.8mb 59f
4:36 8 10 mph 1015.7mb 59f
4:30 9 10 mph 1015.6mb 59f
4:24 8 10 mph 1015.6mb 59f
4:18 8 10 mph 1015.5mb 59f
4:12 7 9 mph 1015.6mb 59f
4:06 6 8 mph 1015.6mb 59f
4:00 7 9 mph 1015.5mb 59f
3:54 9 10 mph 1015.4mb 59f
3:48 8 10 mph 1015.4mb 59f
3:42 7 9 mph 1015.4mb 59f
3:36 7 9 mph 1015.5mb 59f
3:30 7 8 mph 1015.7mb 59f
3:24 5 7 mph 1015.9mb 59f
3:18 5 6 mph 1015.9mb 59f
3:12 7 8 mph 1016mb 58f
3:06 8 9 mph 1016.1mb 58f
3:00 6 8 mph 1016.1mb 59f
2:54 7 9 mph 1016.3mb 59f
2:48 7 8 mph 1016.4mb 59f
2:42 6 7 mph 1016.4mb 59f
2:36 6 7 mph 1016.4mb 59f
2:30 6 8 mph 1016.4mb 59f
2:24 6 8 mph 1016.4mb 59f
2:18 7 8 mph 1016.4mb 59f
2:12 8 9 mph 1016.5mb 58f
2:06 9 10 mph 1016.6mb 58f
2:00 7 9 mph 1016.7mb 59f
1:54 6
mph
1016.7mb 58f
1:48 6 7 mph 1016.8mb 58f
1:42 6 7 mph 1016.8mb 58f
1:36 5 7 mph 1016.9mb 59f
1:30 6 8 mph 1016.9mb 58f
1:24 6 7 mph 1016.8mb 58f
1:18 6 8 mph 1016.8mb 58f
1:12 6 8 mph 1016.8mb 58f
1:06 6 7 mph 1016.8mb 58f
1:00 6 8 mph 1016.8mb 58f
12:54 7 9 mph 1016.8mb 58f
12:48 7 8 mph 1016.9mb 58f
12:42 8 9 mph 1016.9mb 58f
12:36 7 8 mph 1017mb 58f
12:30 6 7 mph 1017mb 58f
12:24 7 8 mph 1017.1mb 58f
12:18 8 9 mph 1017.2mb 58f
12:12 8 9 mph 1017.3mb 58f
12:06 7 8 mph 1017.4mb 58f
12:00 6 7 mph 1017.4mb 58f
mar 03/21 11:54 7 9 mph 1017.2mb 58f
11:48 6 8 mph 1017.2mb -
11:42 7 8 mph 1017.1mb -
11:36 7 8 mph 1017.1mb -
11:30 8 9 mph 1017.1mb 58f
11:24 9 11 mph 1017.2mb 58f
11:18 9 10 mph 1017.3mb 59f
11:12 9 10 mph 1017.2mb 59f
11:06 9 11 mph 1017.3mb 59f
11:00 9 11 mph 1017.4mb 59f
10:54 6 8 mph 1017.4mb 60f
10:48 7 9 mph - -
10:42 7 8 mph - -
10:36 6 7 mph - -
10:30 6 7 mph 1017.4mb 60f
10:24 7 8 mph 1017.4mb 60f
10:12 7 8 mph 1017.4mb 59f
10:06 8 10 mph 1017.5mb 59f
10:00 9 10 mph 1017.5mb 59f
9:54 7 9 mph 1017.4mb 60f
9:48 8 9 mph 1017.3mb 60f
9:42 10 13 mph 1017.3mb 60f
9:36 9 11 mph 1017.2mb 60f
9:30 8 10 mph 1017.2mb 60f
9:24 8 10 mph 1017.3mb 61f
9:18 9 11 mph 1017.3mb 61f
9:12 8 10 mph 1017.4mb 60f
9:06 8 9 mph 1017.4mb 61f
9:00 7 9 mph 1017.4mb 61f
8:54 7 9 mph 1017.4mb 60f
8:48 3 6 mph 1017.4mb 60f
8:42 5 6 mph 1017.4mb 60f
8:36 5 7 mph 1017.3mb 60f
8:30 6 9 mph 1017.2mb 60f
8:24 7 8 mph 1017.2mb 60f
8:18 6 8 mph 1017.2mb 60f
8:12 6 8 mph 1017.1mb 60f
8:06 8 10 mph 1017mb 60f
8:00 8 11 mph 1017mb 60f
7:54 8 10 mph 1016.9mb 60f
7:48 7 9 mph 1016.9mb 60f
7:42 7 9 mph 1016.9mb 60f
7:36 6 8 mph 1017mb 59f
7:30 6 8 mph 1017.1mb 59f
7:24 5 7 mph 1017mb 59f
7:18 5 6 mph 1017.1mb 59f
7:12 5 7 mph 1017.2mb 59f
7:06 5 7 mph 1017.2mb 59f
7:00 5 7 mph 1017.2mb 59f
6:54 6 8 mph 1017.2mb 59f
6:48 7 9 mph 1017.2mb 58f
6:42 6 9 mph 1017.2mb 58f
6:36 7 9 mph 1017.2mb 58f
6:30 7 8 mph 1017.3mb 58f
6:24 7 8 mph 1017.3mb 58f
6:12 8 11 mph 1017.2mb 58f
6:06 8 11 mph 1017.2mb 58f
6:00 8 11 mph 1017.2mb 58f
5:54 8 10 mph 1017.2mb 58f
5:48 8 11 mph 1017.2mb 58f
5:42 8 10 mph 1017.3mb 58f
5:36 7 10 mph 1017.3mb 58f
5:30 8 10 mph 1017.2mb 58f
5:24 7 9 mph 1017.2mb 59f
5:18 6 8 mph 1017.4mb 59f
5:12 8 9 mph 1017.4mb 59f
5:06 7 9 mph 1017.4mb 59f
5:00 8 10 mph 1017.5mb 59f
4:54 5 8 mph 1017.6mb 59f
4:48 6 7 mph 1017.7mb 58f
4:42 6 8 mph 1017.7mb 58f
4:36 8 10 mph 1017.7mb 58f
4:30 11 13 mph 1017.7mb 58f
4:24 10 13 mph 1017.7mb 58f
4:18 10 11 mph 1017.8mb 58f
4:12 7 11 mph 1017.9mb 58f
4:06 7 8 mph 1018mb 58f
4:00 8 10 mph 1018mb 58f
3:54 10 11 mph 1018mb 58f
3:48 11 14 mph 1017.9mb 59f
3:42 8 10 mph 1017.9mb 60f
3:36 6 7 mph 1018mb 61f
3:30 6 8 mph 1018mb 61f
3:24 8 9 mph 1018mb 61f
3:18 9 10 mph 1017.9mb 61f
3:12 9 10 mph 1017.8mb 61f
3:06 8 9 mph 1017.8mb 62f
3:00 8 9 mph 1017.8mb 61f
2:54 8 9 mph 1017.8mb 62f
2:48 9 10 mph 1017.8mb 61f
2:42 8 9 mph 1017.9mb 61f
2:36 10 11 mph 1017.9mb 61f
2:30 9 11 mph 1018mb 61f
2:24 8 9 mph 1018mb 61f
2:18 8 9 mph 1018.1mb 61f
2:12 8 9 mph 1018.2mb 62f
2:06 8 10 mph 1018.3mb 62f
2:00 9 10 mph 1018.3mb 62f
1:54 9 10 mph 1018.2mb 62f
1:48 8 9 mph 1018.2mb 61f
1:42 8 10 mph 1018.4mb 61f
1:36 8 10 mph 1018.3mb 62f
1:30 9 11 mph 1018.3mb 62f
1:24 10 11 mph 1018.4mb 62f
1:18 11 13 mph 1018.5mb 62f
1:12 10 14 mph 1018.5mb 62f
1:06 11 14 mph 1018.5mb 63f
1:00 10 14 mph 1018.6mb 62f
12:54 10 13 mph 1018.6mb 62f
12:48 10 14 mph 1018.7mb 62f
12:42 13 14 mph 1018.6mb 62f
12:36 10 13 mph 1018.7mb 63f
12:30 9 14 mph 1018.9mb 63f
12:24 8 11 mph 1018.9mb 63f
12:18 9 11 mph 1019.1mb 62f
12:12 9 11 mph 1019.1mb 62f
12:06 9 13 mph 1019mb 62f
12:00 9 13 mph 1019.1mb 62f
11:54 11 13 mph 1019.1mb 62f
11:48 8 11 mph 1019.3mb 62f
11:42 9 10 mph 1019.2mb 62f
11:36 9 11 mph 1019.3mb 62f
11:30 10 11 mph 1019.4mb 61f
11:24 9 11 mph 1019.5mb 61f
11:18 9 10 mph 1019.4mb 61f
11:12 9 10 mph 1019.3mb 61f
11:06 10 11 mph 1019.3mb 61f
11:00 10 13 mph 1019.3mb 61f
10:54 11 13 mph 1019.1mb 61f
10:48 10 13 mph 1019.1mb 61f
10:42 13 14 mph 1019.1mb 61f
10:36 11 14 mph 1019.1mb 61f
10:30 9 13 mph 1019.1mb 62f
10:24 10 14 mph 1019.1mb 62f
10:18 9 13 mph 1019.2mb 61f
10:12 9 11 mph 1019.2mb 61f
10:06 9 11 mph 1019.1mb 61f
10:00 9 11 mph 1019.2mb 61f
9:54 9 10 mph 1019.1mb 60f
9:48 9 10 mph 1019.1mb 60f
9:42 8 9 mph 1019.1mb 60f
9:36 8 9 mph 1019.1mb 60f
9:30 8 9 mph 1019mb 60f
9:24 9 10 mph 1018.9mb 60f
9:18 9 10 mph 1018.8mb 60f
9:12 7 8 mph 1018.8mb 61f
9:06 7 8 mph 1018.8mb 60f
9:00 8 9 mph 1018.8mb 60f
8:54 8
mph
1018.8mb 60f
8:48 8 9 mph 1019mb 60f
8:42 6 7 mph 1019mb 60f
8:36 7 8 mph 1019mb 60f
8:30 6 8 mph 1018.8mb 60f
8:24 7 8 mph 1018.7mb 60f
8:18 8 9 mph 1018.5mb 60f
8:12 7 8 mph 1018.6mb 60f
8:06 7 8 mph 1018.7mb 60f
8:00 8
mph
1018.7mb 60f
7:54 7 8 mph 1018.7mb 60f
7:48 8 9 mph 1018.6mb 60f
7:42 7 8 mph 1018.6mb 60f
7:36 6 8 mph 1018.6mb 60f
7:30 6 8 mph 1018.7mb 60f
7:24 7 8 mph 1018.6mb 60f
7:18 7 8 mph 1018.5mb 60f
7:12 7 8 mph 1018.5mb 60f
7:06 7 8 mph 1018.1mb 60f
7:00 6 7 mph 1018mb 60f
6:54 6 8 mph 1018.1mb 60f
6:48 6 8 mph 1018.2mb 60f
6:42 6 8 mph 1018.2mb 60f
6:36 5 7 mph 1018mb 59f
6:30 5 6 mph 1018mb 59f
6:24 6 7 mph 1018.2mb 59f
6:18 5 6 mph 1018.3mb 60f
6:12 3 6 mph 1018.3mb 59f
6:06 3 5 mph 1018.2mb 60f
6:00 5 6 mph 1018.1mb 60f
5:54 5 6 mph 1018mb 59f
5:48 6 7 mph 1018mb 60f
5:42 6 8 mph 1017.2mb 60f
5:36 2 6 mph 1017.5mb 60f
5:30 3 7 mph 1017.4mb 60f
5:24 3 7 mph 1017.5mb 60f
5:18 5 7 mph 1017.6mb 60f
5:12 6 8 mph 1017.8mb 60f
5:06 6 8 mph 1017.8mb 60f
5:00 3 6 mph 1018.1mb 60f
4:54 2 3 mph 1018.3mb 59f
4:48 3
mph
1018.5mb 59f
4:42 2
mph
1018.5mb 59f
4:36 2
mph
1018.4mb 59f
4:30 1 2 mph 1018.4mb 59f
4:18 2
mph
1018.5mb 59f
4:12 2 3 mph 1018.6mb 59f
4:06 2 3 mph 1018.5mb 59f
4:00 2 3 mph 1018.5mb 59f
3:54 2 3 mph 1018.5mb 59f
3:48 2 3 mph 1018.5mb 59f
3:42 1 2 mph 1018.5mb 59f
3:36 1 2 mph 1018.5mb 59f
3:30 1
mph
1018.5mb 59f
3:24 1
mph
1018.5mb 59f
3:18 1
mph
1018.5mb 59f
3:12  -  1 mph 1018.4mb 59f
3:06  -  1 mph 1018.4mb 59f
3:00 1 2 mph 1018.4mb 59f
2:54 1
mph
1018.5mb 59f
2:48 1 2 mph 1018.4mb 59f
2:42 1 2 mph 1018.5mb 59f
2:36 1 3 mph 1018.3mb 59f
2:30 5 6 mph 1018.3mb 59f
2:24 5 6 mph 1018.5mb 59f
2:18 3 5 mph 1018.6mb 59f
2:12 3 6 mph 1018.6mb 59f
2:06 3 6 mph 1018.6mb 60f
2:00 5 6 mph 1018.7mb 60f
1:54 2 5 mph 1018.7mb 59f
1:48  -  1 mph 1018.7mb 59f
1:42  -  1 mph 1018.8mb 59f
1:36  -  1 mph 1018.9mb 59f
1:30  -  2 mph 1018.9mb 59f
1:24  -  2 mph 1018.9mb 59f
1:18 1 2 mph 1019mb 59f
1:12  -  2 mph 1019.1mb 59f
1:06 1 3 mph 1019.2mb 59f
1:00 2 3 mph 1019.2mb 59f
12:54 2
mph
1019.2mb 59f
12:48 2
mph
1019.1mb 58f
12:42 2
mph
1019.2mb 59f
12:36  -  1 mph 1019.2mb 58f
12:30  -  1 mph 1019.1mb 59f
12:24  -  1 mph 1019.1mb 59f
12:18 2
mph
1019.1mb 59f
12:12 2
mph
1019mb 59f
12:06 2 3 mph 1019.1mb 59f
12:00 2 3 mph 1019mb 59f
lun 03/20 11:54 3 5 mph 1019.1mb 59f
11:48 3 5 mph 1019mb 60f
11:42 5 7 mph 1019.1mb 60f
11:36 6 7 mph 1019.2mb 60f
11:30 6 8 mph 1019.3mb 60f
11:24 3 5 mph 1019.3mb 59f
11:18 2 3 mph 1019.2mb 60f
11:12 5 6 mph 1019.3mb 60f
11:06 5 6 mph 1019.2mb 60f
11:00 5 7 mph 1019.3mb 60f
10:54 7 8 mph 1019.3mb 60f
10:48 6 7 mph 1019.2mb 60f
10:42 6 9 mph 1019.2mb 60f
10:36 7 9 mph 1019.2mb 60f
10:30 7 10 mph 1019.1mb 60f
10:24 7 8 mph 1019.1mb 60f
10:18 7 8 mph 1019.1mb 60f
10:12 6 7 mph 1019.1mb 60f
10:06 6 7 mph 1019.1mb 60f
10:00 7 9 mph 1019.1mb 60f
9:54 7 9 mph 1019mb 60f
9:48 6 8 mph 1018.8mb 60f
9:42 5 6 mph 1018.6mb 60f
9:36 2 5 mph 1018.4mb 60f
9:30 3 6 mph 1018.4mb 60f
9:24 3 5 mph 1018.4mb 60f
9:18 3 5 mph 1018.3mb 60f
9:12 3 6 mph 1018.4mb 60f
9:06 5 6 mph 1018.5mb 60f
9:00 6 7 mph 1018.5mb 60f
8:54 6 7 mph 1018.5mb 60f
8:48 6 8 mph 1018.5mb 60f
8:42 6 7 mph 1018.4mb 60f
8:36 6 8 mph 1018.4mb 60f
8:30 6 8 mph 1018.3mb 60f
8:24 6 7 mph 1018.2mb 60f
8:18 6 8 mph 1018.2mb 61f
8:12 6 8 mph 1018.2mb 60f
8:06 7 8 mph 1018.2mb 61f
8:00 7 8 mph 1018.2mb 61f
7:54 7 9 mph 1018.2mb 61f
7:48 6 7 mph 1018.1mb 61f
7:42 6 9 mph 1018.1mb 61f
7:36 8 10 mph 1018.1mb 61f
7:30 8 10 mph 1018.2mb 61f
7:24 9 14 mph 1018mb 61f
7:18 9 14 mph 1018mb 61f
7:12 10 14 mph 1018mb 61f
7:06 9 13 mph 1017.9mb 61f
7:00 9 13 mph 1017.8mb 61f
6:54 8 10 mph 1017.8mb 61f
6:48 8 11 mph 1017.7mb 61f
6:42 9 13 mph 1017.7mb 61f
6:36 9 13 mph 1017.7mb 61f
6:30 9 13 mph 1017.7mb 62f
6:24 10 13 mph 1017.6mb 62f
6:18 9 13 mph 1017.5mb 62f
6:12 9 14 mph 1017.5mb 62f
6:06 10 14 mph 1017.6mb 63f
6:00 14 16 mph 1017.6mb 63f